Time;durP1;ratioP1;P1;durP2;ratioP2;P2;SDS_P1;SDS_P2;PMS_P1;PMS_P2;Temp;Humidity;BMP_temperature;BMP_pressure;BME280_temperature;BME280_humidity;BME280_pressure;Samples;Min_cycle;Max_cycle;Signal;HPM_P1;HPM_P2
2023/01/16 00:09:50;;;;;;;6.80;3.60;;;;;;;5.43;96.64;98931.01;682887;1262;138008;-79
2023/01/16 00:24:53;;;;;;;7.80;2.80;;;;;;;5.31;95.76;98928.40;683073;1259;137992;-79
2023/01/16 00:39:57;;;;;;;5.20;3.40;;;;;;;5.28;95.44;98930.02;682912;1262;138104;-79
2023/01/16 00:55:00;;;;;;;9.40;3.30;;;;;;;5.38;93.46;98930.52;682922;1262;138244;-78
2023/01/16 01:10:03;;;;;;;5.60;2.80;;;;;;;5.44;93.22;98931.93;682983;1262;139481;-79
2023/01/16 01:25:07;;;;;;;5.40;2.80;;;;;;;5.46;91.41;98937.48;683297;1259;138051;-78
2023/01/16 01:40:11;;;;;;;9.20;2.60;;;;;;;5.47;90.25;98929.11;683099;1259;138168;-77
2023/01/16 01:55:14;;;;;;;7.00;2.30;;;;;;;5.53;88.74;98930.87;683097;1262;138192;-79
2023/01/16 02:10:28;;;;;;;6.90;3.10;;;;;;;5.50;88.51;98922.10;682882;1262;138240;-79
2023/01/16 02:25:50;;;;;;;5.10;2.70;;;;;;;5.37;88.32;98925.15;682681;1257;138821;-79
2023/01/16 02:41:02;;;;;;;3.30;2.20;;;;;;;5.26;88.15;98922.08;683109;1262;139895;-79
2023/01/16 02:56:09;;;;;;;3.30;2.30;;;;;;;5.21;87.36;98921.30;683200;1258;140126;-77
2023/01/16 03:11:22;;;;;;;3.50;1.60;;;;;;;5.27;86.31;98930.15;682794;1258;137892;-77
2023/01/16 03:26:47;;;;;;;6.30;2.60;;;;;;;5.20;86.48;98930.79;683069;1261;139090;-76
2023/01/16 03:41:54;;;;;;;4.50;1.60;;;;;;;5.15;85.75;98932.95;683138;1262;138116;-78
2023/01/16 03:57:10;;;;;;;5.10;2.20;;;;;;;5.08;85.61;98929.40;683004;1262;138563;-78
2023/01/16 04:12:19;;;;;;;4.80;2.20;;;;;;;5.07;85.48;98937.29;682730;1267;139193;-78
2023/01/16 04:27:23;;;;;;;6.30;2.90;;;;;;;5.05;85.65;98932.77;682705;1274;139256;-78
2023/01/16 04:42:27;;;;;;;7.10;3.40;;;;;;;4.99;85.74;98921.45;682844;1263;138490;-79
2023/01/16 04:57:30;;;;;;;14.00;5.80;;;;;;;4.96;86.01;98918.06;682947;1262;138673;-78
2023/01/16 05:12:36;;;;;;;6.10;3.10;;;;;;;4.93;86.23;98919.76;682880;1262;140040;-79
2023/01/16 05:27:55;;;;;;;5.30;2.70;;;;;;;4.83;86.30;98924.89;682764;1263;137957;-79
2023/01/16 05:42:58;;;;;;;10.00;2.80;;;;;;;4.74;86.55;98931.23;682987;1263;138831;-79
2023/01/16 05:58:02;;;;;;;4.30;2.50;;;;;;;4.54;87.29;98936.02;682931;1262;139904;-79
2023/01/16 06:13:05;;;;;;;8.10;3.00;;;;;;;4.45;88.15;98929.63;682816;1259;139155;-79
2023/01/16 06:28:09;;;;;;;8.30;3.40;;;;;;;4.44;87.61;98928.75;682990;1262;139781;-80
2023/01/16 06:43:12;;;;;;;11.70;6.20;;;;;;;4.39;88.20;98932.12;682650;1259;138937;-80
2023/01/16 06:58:15;;;;;;;6.20;2.80;;;;;;;4.28;87.81;98946.53;682813;1262;138395;-78
2023/01/16 07:13:26;;;;;;;10.30;5.30;;;;;;;4.14;88.37;98946.45;682898;1262;138059;-79
2023/01/16 07:28:31;;;;;;;9.50;4.40;;;;;;;4.10;88.41;98942.77;682434;1259;139317;-79
2023/01/16 07:43:34;;;;;;;11.40;5.90;;;;;;;4.12;88.62;98939.12;683084;1260;139061;-79
2023/01/16 07:58:41;;;;;;;13.60;6.20;;;;;;;4.24;88.41;98944.70;682588;1261;138724;-79
2023/01/16 08:13:44;;;;;;;17.10;7.10;;;;;;;4.41;88.83;98934.55;682670;1262;138931;-79
2023/01/16 08:28:48;;;;;;;25.30;12.70;;;;;;;4.63;89.11;98934.36;683009;1263;139852;-79
2023/01/16 08:59:14;;;;;;;22.60;10.50;;;;;;;5.96;86.50;98932.41;682829;1263;138670;-79
2023/01/16 09:14:17;;;;;;;19.70;9.90;;;;;;;6.37;84.94;98928.54;683188;1260;138727;-79
2023/01/16 09:29:28;;;;;;;32.10;20.30;;;;;;;6.76;83.44;98933.59;683084;1263;139356;-79
2023/01/16 09:44:31;;;;;;;18.00;8.70;;;;;;;6.74;81.31;98930.14;683182;1257;140043;-79
2023/01/16 09:59:40;;;;;;;32.70;23.10;;;;;;;6.48;80.82;98914.83;683261;1263;138157;-80
2023/01/16 10:14:51;;;;;;;;;;;;;;;6.58;81.05;98892.89;683307;1263;138791;-79
2023/01/16 10:30:05;;;;;;;15.30;8.00;;;;;;;6.66;80.86;98870.64;684018;1261;126343;-79
2023/01/16 11:00:42;;;;;;;21.40;11.20;;;;;;;6.70;81.53;98835.52;683172;1260;138659;-79
2023/01/16 11:31:40;;;;;;;16.60;8.30;;;;;;;7.85;79.89;98805.77;683089;1266;139844;-78
2023/01/16 11:46:44;;;;;;;18.30;7.10;;;;;;;8.73;78.15;98787.98;683148;1261;138605;-78
2023/01/16 12:02:21;;;;;;;15.60;7.40;;;;;;;9.42;75.18;98776.08;683248;1263;138425;-78
2023/01/16 12:17:55;;;;;;;17.40;6.60;;;;;;;9.95;73.67;98762.31;683003;1273;139214;-79
2023/01/16 12:33:21;;;;;;;18.60;10.70;;;;;;;10.43;71.02;98741.23;683343;1259;139941;-78
2023/01/16 12:48:52;;;;;;;29.50;19.00;;;;;;;11.38;70.15;98719.20;683431;1260;141038;-79
2023/01/16 13:04:00;;;;;;;116.10;55.00;;;;;;;11.59;68.07;98692.97;683186;1257;138815;-79
2023/01/16 13:19:13;;;;;;;59.10;28.00;;;;;;;13.43;66.40;98670.59;683223;1257;139164;-79
2023/01/16 13:34:29;;;;;;;49.10;21.80;;;;;;;17.86;60.90;98632.85;683049;1257;138979;-79
2023/01/16 13:49:33;;;;;;;35.80;17.00;;;;;;;17.98;57.68;98612.90;683610;1261;138134;-79
2023/01/16 14:04:36;;;;;;;51.50;22.70;;;;;;;17.18;56.73;98605.21;683192;1257;139090;-79
2023/01/16 14:20:01;;;;;;;113.30;43.40;;;;;;;11.92;59.57;98589.75;683321;1258;139983;-78
2023/01/16 14:35:30;;;;;;;110.40;38.00;;;;;;;9.23;64.41;98582.27;683241;1257;142213;-79
2023/01/16 15:06:20;;;;;;;111.40;36.80;;;;;;;6.92;71.88;98564.14;683210;1261;138554;-79
2023/01/16 15:36:53;;;;;;;176.30;48.50;;;;;;;5.91;76.86;98525.27;683542;1257;139274;-79
2023/01/16 15:51:58;;;;;;;137.80;45.90;;;;;;;5.50;78.24;98509.17;682915;1256;139242;-79
2023/01/16 16:07:01;;;;;;;89.90;32.50;;;;;;;5.21;80.23;98491.33;683325;1260;139501;-79
2023/01/16 16:37:32;;;;;;;185.50;57.30;;;;;;;4.89;82.36;98460.95;683450;1260;139501;-79
2023/01/16 16:52:40;;;;;;;199.60;71.40;;;;;;;4.77;83.97;98453.77;683054;1258;139820;-79
2023/01/16 17:07:43;;;;;;;;;;;;;;;4.56;85.15;98438.75;683319;1259;138905;-80
2023/01/16 17:22:48;;;;;;;91.40;36.30;;;;;;;4.38;86.71;98422.20;683310;1258;125462;-79
2023/01/16 17:37:52;;;;;;;84.70;37.20;;;;;;;4.25;88.06;98391.20;683329;1260;139804;-79
2023/01/16 17:52:55;;;;;;;54.90;24.60;;;;;;;4.18;88.71;98373.55;683095;1260;139869;-79
2023/01/16 18:07:58;;;;;;;124.60;43.30;;;;;;;4.14;89.82;98365.41;683365;1259;139510;-78
2023/01/16 18:23:05;;;;;;;60.20;30.00;;;;;;;4.10;92.25;98358.10;683363;1257;138528;-79
2023/01/16 19:11:09;;;;;;;70.10;34.20;;;;;;;4.71;97.88;98318.05;683353;1256;140413;-79
2023/01/16 19:27:23;;;;;;;71.10;33.70;;;;;;;4.85;98.66;98295.05;683119;1257;139400;-79
2023/01/16 19:58:24;;;;;;;61.80;28.80;;;;;;;5.11;98.30;98252.89;683018;1260;139178;-79
2023/01/16 20:13:27;;;;;;;79.90;33.20;;;;;;;5.24;98.56;98223.94;683096;1261;139862;-79
2023/01/16 20:28:34;;;;;;;63.60;30.00;;;;;;;5.37;98.40;98193.05;682853;1260;139180;-79
2023/01/16 20:59:03;;;;;;;40.80;19.70;;;;;;;5.35;97.97;98143.11;683022;1258;139653;-80
2023/01/16 21:14:18;;;;;;;40.40;19.40;;;;;;;5.33;99.09;98120.02;683091;1262;138850;-79
2023/01/16 21:29:23;;;;;;;41.20;19.50;;;;;;;5.40;98.68;98110.34;683106;1257;139492;-79
2023/01/16 21:59:50;;;;;;;35.00;16.90;;;;;;;5.60;98.66;98065.99;683406;1263;139069;-79
2023/01/16 22:30:16;;;;;;;37.00;19.80;;;;;;;5.65;98.74;98025.27;683437;1262;138980;-80
2023/01/16 23:00:43;;;;;;;39.80;19.80;;;;;;;5.65;99.67;97971.64;683160;1262;139061;-79
2023/01/16 23:15:48;;;;;;;43.00;20.40;;;;;;;5.66;99.80;97942.27;682885;1262;139547;-79
2023/01/16 23:31:06;;;;;;;41.40;19.40;;;;;;;5.68;99.88;97908.04;683089;1263;138855;-79
2023/01/16 23:46:09;;;;;;;47.50;21.70;;;;;;;5.77;99.99;97872.98;683202;1263;138628;-79
